Big Spring, Kentucky
Current Conditions -  °F | °C
As of 11:32 PM on Wednesday 26 Nov 2014 (Local Time) from KFTK Reporting Station
Unknown Precip Unknown Precip  
Wind Chill: 36°   Ceiling: 2200
Heat Index: 36°   Visibility: 10mi
Dew Point: 32°   Wind: 2mph
Humidity: 87%   Direction: 270°W
Pressure: 30.01"   Gusts: NA
Location:  37.8°N, 86.15°W
Report Text: KFTK 270432Z AUTO 27002KT 10SM UP SCT015 OVC022 02/00 A3001 RMK AO2 OVC V BKN
Loading
Personal Weather Stations






























Interactive Weather Map New forecast layout! Learn more

10-Day Weather Forecast

Advertisements
Track Severe Weather on mobile